Time;durP1;ratioP1;P1;durP2;ratioP2;P2;SDS_P1;SDS_P2;PMS_P1;PMS_P2;Temp;Humidity;BMP_temperature;BMP_pressure;BME280_temperature;BME280_humidity;BME280_pressure;Samples;Min_cycle;Max_cycle;Signal;HPM_P1;HPM_P2
2022/04/26 03:37:45;;;;;;;5.90;4.50;;;;;;;;;;5017315;28;20030;-83
2022/04/26 03:40:12;;;;;;;6.05;4.68;;;;;;;;;;5033032;28;20030;-83
2022/04/26 03:42:37;;;;;;;6.18;4.50;;;;;;;;;;5017221;28;20036;-83
2022/04/26 03:45:03;;;;;;;5.50;4.10;;;;;;;;;;5015709;28;20038;-83
2022/04/26 03:47:29;;;;;;;5.65;4.60;;;;;;;;;;5018199;28;20072;-83
2022/04/26 03:49:54;;;;;;;5.53;4.50;;;;;;;;;;5016715;28;20038;-83
2022/04/26 03:52:20;;;;;;;7.13;4.57;;;;;;;;;;5033146;28;20033;-83
2022/04/26 03:54:46;;;;;;;6.38;4.70;;;;;;;;;;5015918;28;20037;-83
2022/04/26 03:57:11;;;;;;;5.80;4.55;;;;;;;;;;5016400;28;20065;-83
2022/04/26 03:59:36;;;;;;;6.18;4.93;;;;;;;;;;5016373;28;20513;-83
2022/04/26 04:02:02;;;;;;;6.65;5.05;;;;;;;;;;5016038;28;20065;-83
2022/04/26 04:04:27;;;;;;;7.45;5.07;;;;;;;;;;5015670;28;20040;-83
2022/04/26 04:06:53;;;;;;;6.22;4.72;;;;;;;;;;5017503;28;20139;-83
2022/04/26 04:09:18;;;;;;;4.97;4.18;;;;;;;;;;5017085;28;20041;-83
2022/04/26 04:11:44;;;;;;;5.78;4.72;;;;;;;;;;5017265;28;20113;-83
2022/04/26 04:14:09;;;;;;;6.70;4.40;;;;;;;;;;5015514;28;20069;-83
2022/04/26 04:16:35;;;;;;;6.10;4.90;;;;;;;;;;5016208;28;20050;-83
2022/04/26 04:19:19;;;;;;;6.35;4.80;;;;;;;;;;5015787;28;20061;-83
2022/04/26 04:21:45;;;;;;;6.35;4.65;;;;;;;;;;5015943;28;20073;-83
2022/04/26 04:24:13;;;;;;;7.80;5.70;;;;;;;;;;5022961;23;20042;-82
2022/04/26 04:26:38;;;;;;;7.40;5.57;;;;;;;;;;4996416;28;20038;-83
2022/04/26 04:29:05;;;;;;;7.47;5.03;;;;;;;;;;4997727;28;20117;-85
2022/04/26 04:31:31;;;;;;;6.53;5.30;;;;;;;;;;4996277;28;20085;-83
2022/04/26 04:33:56;;;;;;;6.55;5.03;;;;;;;;;;4996222;28;20039;-82
2022/04/26 04:36:22;;;;;;;6.30;4.90;;;;;;;;;;5012006;28;20042;-83
2022/04/26 04:38:47;;;;;;;5.53;4.60;;;;;;;;;;5012237;28;20299;-83
2022/04/26 04:41:14;;;;;;;7.20;5.60;;;;;;;;;;4996652;28;20045;-82
2022/04/26 04:43:40;;;;;;;7.70;5.63;;;;;;;;;;5011607;28;20122;-83
2022/04/26 04:46:05;;;;;;;6.60;5.30;;;;;;;;;;4995524;28;20050;-83
2022/04/26 04:48:31;;;;;;;6.72;5.40;;;;;;;;;;4978244;28;20073;-84
2022/04/26 04:50:56;;;;;;;8.25;5.78;;;;;;;;;;4978042;28;20112;-84
2022/04/26 04:53:22;;;;;;;9.63;6.93;;;;;;;;;;4994163;28;20132;-83
2022/04/26 04:55:47;;;;;;;8.60;6.32;;;;;;;;;;4993116;28;20125;-82
2022/04/26 04:58:13;;;;;;;7.20;5.68;;;;;;;;;;5010541;28;20042;-82
2022/04/26 05:00:38;;;;;;;8.63;6.07;;;;;;;;;;5009924;28;20045;-83
2022/04/26 05:03:04;;;;;;;9.07;6.05;;;;;;;;;;4995170;28;20037;-85
2022/04/26 05:05:29;;;;;;;10.10;8.10;;;;;;;;;;4999443;28;20463;-84
2022/04/26 05:07:58;;;;;;;10.52;7.13;;;;;;;;;;5013079;28;20061;-83
2022/04/26 05:10:24;;;;;;;11.25;6.88;;;;;;;;;;5013842;28;20045;-84
2022/04/26 05:12:50;;;;;;;6.90;5.35;;;;;;;;;;4997369;28;20117;-87
2022/04/26 05:15:15;;;;;;;7.22;5.47;;;;;;;;;;5001983;28;20120;-84
2022/04/26 05:17:41;;;;;;;11.68;5.70;;;;;;;;;;5012239;28;20030;-82
2022/04/26 05:20:08;;;;;;;9.07;6.78;;;;;;;;;;4979587;28;20073;-85
2022/04/26 05:24:53;;;;;;;13.00;9.25;;;;;;;;;;4995966;28;20045;-84
2022/04/26 05:25:19;;;;;;;25.80;17.58;;;;;;;;;;4995915;28;20034;-83
2022/04/26 05:27:44;;;;;;;52.35;34.03;;;;;;;;;;5012001;28;20061;-84
2022/04/26 05:30:10;;;;;;;13.30;8.30;;;;;;;;;;4996516;28;20074;-86
2022/04/26 05:32:36;;;;;;;12.52;9.18;;;;;;;;;;5011850;28;20026;-84
2022/04/26 05:35:02;;;;;;;10.23;7.97;;;;;;;;;;4978609;28;20118;-83
2022/04/26 05:37:29;;;;;;;9.30;7.18;;;;;;;;;;4995609;28;20046;-84
2022/04/26 05:39:55;;;;;;;9.52;7.60;;;;;;;;;;4979457;28;20034;-85
2022/04/26 05:42:21;;;;;;;8.18;6.30;;;;;;;;;;5011976;28;20026;-84
2022/04/26 05:44:46;;;;;;;9.35;6.35;;;;;;;;;;4994817;28;20100;-82
2022/04/26 05:47:12;;;;;;;9.82;7.05;;;;;;;;;;4995614;28;20018;-83
2022/04/26 05:49:37;;;;;;;15.02;8.65;;;;;;;;;;5012348;28;20069;-83
2022/04/26 05:52:03;;;;;;;14.18;8.50;;;;;;;;;;4995446;28;20030;-83
2022/04/26 05:54:28;;;;;;;16.50;9.75;;;;;;;;;;5010560;28;20499;-82
2022/04/26 05:56:54;;;;;;;11.65;7.85;;;;;;;;;;5011951;28;20033;-85
2022/04/26 05:59:23;;;;;;;13.88;7.38;;;;;;;;;;4981980;28;20495;-83
2022/04/26 06:01:48;;;;;;;9.27;6.30;;;;;;;;;;4999145;28;20030;-84
2022/04/26 06:04:14;;;;;;;7.90;5.65;;;;;;;;;;4998441;28;20038;-83
2022/04/26 06:06:39;;;;;;;6.88;5.40;;;;;;;;;;4982097;28;20038;-82
2022/04/26 06:09:05;;;;;;;7.20;5.72;;;;;;;;;;5014646;28;20562;-82
2022/04/26 06:11:31;;;;;;;6.75;5.32;;;;;;;;;;4999002;28;20031;-82
2022/04/26 06:13:56;;;;;;;6.68;5.13;;;;;;;;;;4990645;28;20065;-83
2022/04/26 06:16:22;;;;;;;6.68;4.80;;;;;;;;;;4998397;28;20039;-84
2022/04/26 06:18:47;;;;;;;7.25;4.90;;;;;;;;;;4982510;28;20070;-81
2022/04/26 06:21:13;;;;;;;9.20;5.97;;;;;;;;;;5016877;28;20061;-83
2022/04/26 06:23:39;;;;;;;16.90;8.02;;;;;;;;;;5001071;28;20117;-82
2022/04/26 06:26:05;;;;;;;27.73;11.98;;;;;;;;;;5015381;28;20128;-84
2022/04/26 06:28:30;;;;;;;10.18;6.82;;;;;;;;;;5015768;28;20048;-83
2022/04/26 06:30:56;;;;;;;16.27;8.90;;;;;;;;;;4999196;28;20034;-83
2022/04/26 06:33:21;;;;;;;9.82;6.82;;;;;;;;;;4999311;28;20121;-84
2022/04/26 06:35:47;;;;;;;9.48;7.50;;;;;;;;;;5014752;28;20030;-84
2022/04/26 06:38:12;;;;;;;15.38;8.52;;;;;;;;;;4999377;28;20182;-82
2022/04/26 06:40:38;;;;;;;11.20;7.95;;;;;;;;;;5015233;28;20068;-84
2022/04/26 06:43:03;;;;;;;13.10;8.68;;;;;;;;;;4980990;28;20057;-84
2022/04/26 06:45:29;;;;;;;11.82;8.27;;;;;;;;;;4987299;28;20034;-84
2022/04/26 06:47:54;;;;;;;11.65;7.60;;;;;;;;;;4966323;28;20030;-84
2022/04/26 06:50:23;;;;;;;12.40;8.00;;;;;;;;;;4997277;28;20418;-83
2022/04/26 06:52:49;;;;;;;13.77;9.02;;;;;;;;;;4965181;28;20068;-85
2022/04/26 06:55:14;;;;;;;11.77;8.43;;;;;;;;;;5003696;28;20117;-83
2022/04/26 06:57:40;;;;;;;23.00;11.63;;;;;;;;;;4962319;28;20408;-83
2022/04/26 07:00:07;;;;;;;12.95;8.10;;;;;;;;;;4978087;28;20031;-83
2022/04/26 07:02:32;;;;;;;11.00;7.72;;;;;;;;;;4945679;28;20023;-84
2022/04/26 07:04:57;;;;;;;13.70;8.10;;;;;;;;;;4979000;28;20046;-83
2022/04/26 07:07:23;;;;;;;12.60;7.70;;;;;;;;;;4978743;28;20049;-82
2022/04/26 07:09:49;;;;;;;8.32;5.20;;;;;;;;;;4978695;28;20117;-80
2022/04/26 07:12:14;;;;;;;11.43;7.30;;;;;;;;;;4968971;28;20046;-83
2022/04/26 07:14:40;;;;;;;11.65;6.65;;;;;;;;;;4978125;28;20063;-82
2022/04/26 07:17:05;;;;;;;15.65;9.40;;;;;;;;;;4977241;28;20054;-84
2022/04/26 07:19:34;;;;;;;13.15;8.43;;;;;;;;;;4960796;28;20049;-83
2022/04/26 07:22:00;;;;;;;27.13;12.77;;;;;;;;;;4967755;28;20034;-84
2022/04/26 07:24:25;;;;;;;10.63;6.05;;;;;;;;;;4977407;28;20027;-85
2022/04/26 07:26:52;;;;;;;13.65;8.57;;;;;;;;;;4978845;28;20088;-84
2022/04/26 07:29:17;;;;;;;9.25;6.88;;;;;;;;;;4978870;28;20034;-83
2022/04/26 07:31:44;;;;;;;12.13;7.80;;;;;;;;;;4961253;28;20045;-83
2022/04/26 07:34:22;;;;;;;11.93;7.70;;;;;;;;;;4961284;28;20039;-83
2022/04/26 07:37:02;;;;;;;8.90;6.15;;;;;;;;;;4977380;28;20038;-83
2022/04/26 07:39:29;;;;;;;7.40;5.88;;;;;;;;;;4962348;28;20459;-82
2022/04/26 07:41:54;;;;;;;8.90;6.25;;;;;;;;;;4977154;28;20054;-84
2022/04/26 07:44:20;;;;;;;11.10;7.95;;;;;;;;;;4960224;28;20046;-84
2022/04/26 07:46:46;;;;;;;45.22;25.73;;;;;;;;;;4978363;28;20030;-83
2022/04/26 07:49:12;;;;;;;9.13;7.07;;;;;;;;;;4976518;28;20428;-84
2022/04/26 07:51:38;;;;;;;19.20;11.60;;;;;;;;;;4960135;28;20046;-83
2022/04/26 07:54:04;;;;;;;8.52;6.20;;;;;;;;;;4959677;28;20042;-84
2022/04/26 07:56:31;;;;;;;7.88;6.00;;;;;;;;;;4977960;28;20031;-83
2022/04/26 07:58:58;;;;;;;8.20;6.32;;;;;;;;;;4976182;28;20042;-84
2022/04/26 08:01:25;;;;;;;7.90;6.47;;;;;;;;;;4961252;28;20119;-84
2022/04/26 08:03:51;;;;;;;8.70;6.68;;;;;;;;;;4960844;28;20464;-85
2022/04/26 08:06:16;;;;;;;8.82;6.30;;;;;;;;;;4978194;28;20062;-84
2022/04/26 08:08:44;;;;;;;9.40;6.35;;;;;;;;;;4961243;28;20062;-84
2022/04/26 08:11:13;;;;;;;8.63;6.00;;;;;;;;;;4967928;28;20039;-83
2022/04/26 08:13:39;;;;;;;7.80;6.13;;;;;;;;;;4975684;28;20035;-85
2022/04/26 08:16:05;;;;;;;8.07;6.40;;;;;;;;;;4974915;28;20451;-83
2022/04/26 08:18:30;;;;;;;7.85;5.70;;;;;;;;;;4975508;28;20129;-84
2022/04/26 08:20:56;;;;;;;8.68;6.72;;;;;;;;;;4974026;28;20030;-82
2022/04/26 08:23:21;;;;;;;10.20;6.40;;;;;;;;;;4974551;28;20121;-82
2022/04/26 08:28:33;;;;;;;8.27;6.57;;;;;;;;;;4960574;28;20078;-86
2022/04/26 08:30:58;;;;;;;9.45;6.47;;;;;;;;;;4981720;28;20065;-86
2022/04/26 08:33:24;;;;;;;10.25;7.32;;;;;;;;;;4959203;28;20054;-84
2022/04/26 08:35:49;;;;;;;10.60;7.70;;;;;;;;;;4957334;28;20126;-84
2022/04/26 08:38:15;;;;;;;9.77;7.32;;;;;;;;;;4959671;28;20066;-84
2022/04/26 08:40:42;;;;;;;10.18;7.68;;;;;;;;;;4975326;28;20034;-83
2022/04/26 08:43:07;;;;;;;10.02;7.60;;;;;;;;;;4959379;28;20474;-83
2022/04/26 08:45:33;;;;;;;10.45;7.45;;;;;;;;;;4976169;28;20051;-85
2022/04/26 08:51:03;;;;;;;9.35;7.15;;;;;;;;;;4976078;28;20440;-84
2022/04/26 08:53:29;;;;;;;10.73;7.35;;;;;;;;;;4976096;28;20512;-86
2022/04/26 08:55:56;;;;;;;10.23;7.60;;;;;;;;;;4943775;28;20042;-84
2022/04/26 08:58:22;;;;;;;11.13;7.60;;;;;;;;;;4960518;28;20042;-84
2022/04/26 09:01:03;;;;;;;11.20;7.70;;;;;;;;;;4977720;28;20074;-84
2022/04/26 09:03:54;;;;;;;11.77;8.52;;;;;;;;;;4977771;28;20042;-83
2022/04/26 09:06:33;;;;;;;11.93;8.63;;;;;;;;;;4962374;28;20035;-82
2022/04/26 09:09:11;;;;;;;13.98;9.38;;;;;;;;;;4967322;28;20036;-85
2022/04/26 09:11:37;;;;;;;11.02;8.52;;;;;;;;;;4977422;28;20085;-83
2022/04/26 09:14:08;;;;;;;12.23;8.80;;;;;;;;;;4958771;28;20035;-82
2022/04/26 09:16:33;;;;;;;12.95;8.52;;;;;;;;;;4976685;28;20038;-84
2022/04/26 09:19:00;;;;;;;11.10;8.15;;;;;;;;;;4975675;28;20040;-84
2022/04/26 09:21:27;;;;;;;10.52;8.05;;;;;;;;;;4958618;28;20046;-82
2022/04/26 09:23:57;;;;;;;10.02;7.90;;;;;;;;;;4957663;28;20034;-83
2022/04/26 09:26:23;;;;;;;9.65;7.50;;;;;;;;;;4958024;28;20041;-85
2022/04/26 09:28:50;;;;;;;9.68;7.63;;;;;;;;;;4942150;28;20419;-82
2022/04/26 09:31:26;;;;;;;12.68;8.52;;;;;;;;;;4975675;28;20113;-83
2022/04/26 09:34:04;;;;;;;11.50;8.10;;;;;;;;;;4978314;28;20031;-82
2022/04/26 09:36:31;;;;;;;11.07;7.40;;;;;;;;;;4948057;28;20046;-83
2022/04/26 09:39:00;;;;;;;11.15;7.57;;;;;;;;;;4957277;28;20045;-83
2022/04/26 09:41:27;;;;;;;9.70;7.78;;;;;;;;;;4964845;28;20061;-82
2022/04/26 09:44:03;;;;;;;10.77;7.75;;;;;;;;;;4963578;28;20190;-85
2022/04/26 09:46:55;;;;;;;13.02;8.55;;;;;;;;;;4981175;28;20050;-82
2022/04/26 09:49:21;;;;;;;13.10;9.15;;;;;;;;;;4977242;28;20075;-84
2022/04/26 09:51:48;;;;;;;11.50;8.40;;;;;;;;;;4980654;28;20030;-82
2022/04/26 09:54:13;;;;;;;10.43;8.30;;;;;;;;;;4978904;28;20516;-83
2022/04/26 09:56:41;;;;;;;9.63;7.53;;;;;;;;;;4963451;28;20514;-83
2022/04/26 09:59:07;;;;;;;11.85;7.40;;;;;;;;;;4978775;28;20077;-83
2022/04/26 10:01:39;;;;;;;9.57;7.60;;;;;;;;;;4979812;28;20066;-85
2022/04/26 10:04:06;;;;;;;9.40;7.47;;;;;;;;;;4962993;28;20097;-85
2022/04/26 10:06:39;;;;;;;10.10;8.23;;;;;;;;;;4950018;28;20031;-86
2022/04/26 10:09:09;;;;;;;9.27;7.20;;;;;;;;;;4965026;28;20042;-81
2022/04/26 10:11:34;;;;;;;11.38;7.70;;;;;;;;;;4946511;28;20043;-81
2022/04/26 10:14:02;;;;;;;10.48;8.13;;;;;;;;;;4978894;28;20027;-82
2022/04/26 10:16:27;;;;;;;10.18;8.15;;;;;;;;;;4962152;28;20034;-84
2022/04/26 10:19:02;;;;;;;9.77;7.32;;;;;;;;;;4961899;28;20070;-83
2022/04/26 10:21:27;;;;;;;9.52;7.47;;;;;;;;;;4979454;28;20038;-83
2022/04/26 10:24:01;;;;;;;9.68;7.32;;;;;;;;;;5004843;22;20097;-82
2022/04/26 10:26:27;;;;;;;10.18;7.60;;;;;;;;;;5018156;28;20450;-82
2022/04/26 10:28:53;;;;;;;10.32;7.50;;;;;;;;;;5002194;28;20041;-81
2022/04/26 10:31:21;;;;;;;9.50;7.38;;;;;;;;;;5019635;28;20029;-82
2022/04/26 10:33:47;;;;;;;11.80;8.40;;;;;;;;;;5020474;28;20044;-81
2022/04/26 10:36:28;;;;;;;11.38;8.73;;;;;;;;;;5011951;28;20026;-81
2022/04/26 10:39:06;;;;;;;12.15;7.50;;;;;;;;;;4991223;28;20031;-85
2022/04/26 10:41:33;;;;;;;11.30;7.22;;;;;;;;;;5009555;28;20233;-82
2022/04/26 10:44:17;;;;;;;10.63;7.22;;;;;;;;;;4987893;28;20031;-81
2022/04/26 10:46:44;;;;;;;11.05;7.78;;;;;;;;;;5006494;28;20054;-82
2022/04/26 10:49:25;;;;;;;8.70;7.05;;;;;;;;;;4990269;28;20052;-82
2022/04/26 10:51:57;;;;;;;10.05;7.70;;;;;;;;;;5013224;28;20037;-82
2022/04/26 10:55:02;;;;;;;12.52;8.38;;;;;;;;;;4999760;28;20045;-81
2022/04/26 10:57:35;;;;;;;11.50;8.88;;;;;;;;;;5016600;28;20034;-83
2022/04/26 11:00:14;;;;;;;11.93;8.80;;;;;;;;;;5000532;28;20026;-81
2022/04/26 11:02:41;;;;;;;12.30;9.18;;;;;;;;;;5019867;28;20104;-81
2022/04/26 11:05:11;;;;;;;13.10;8.73;;;;;;;;;;5016148;28;20030;-80
2022/04/26 11:07:44;;;;;;;14.13;10.48;;;;;;;;;;5012615;28;20036;-81
2022/04/26 11:10:11;;;;;;;15.55;10.10;;;;;;;;;;4983675;28;20498;-81
2022/04/26 11:12:37;;;;;;;13.60;8.95;;;;;;;;;;4986487;28;20029;-81
2022/04/26 11:15:29;;;;;;;11.65;8.90;;;;;;;;;;4999448;28;20092;-81
2022/04/26 11:17:55;;;;;;;10.93;8.38;;;;;;;;;;5017540;28;20041;-81
2022/04/26 11:20:22;;;;;;;12.07;8.30;;;;;;;;;;5017009;28;20038;-81
2022/04/26 11:22:56;;;;;;;12.40;9.57;;;;;;;;;;5017835;28;20126;-81
2022/04/26 11:28:13;;;;;;;9.98;7.85;;;;;;;;;;4989349;28;20042;-81
2022/04/26 11:30:39;;;;;;;12.63;9.73;;;;;;;;;;4984258;28;20034;-81
2022/04/26 11:33:09;;;;;;;11.82;8.77;;;;;;;;;;5017942;28;20060;-81
2022/04/26 11:35:34;;;;;;;11.93;9.57;;;;;;;;;;4997340;28;20095;-82
2022/04/26 11:38:13;;;;;;;14.60;10.50;;;;;;;;;;4996792;28;20038;-81
2022/04/26 11:40:41;;;;;;;12.45;9.68;;;;;;;;;;4984286;28;20410;-81
2022/04/26 11:43:19;;;;;;;15.70;10.90;;;;;;;;;;4988514;28;20528;-80
2022/04/26 11:45:46;;;;;;;12.55;9.85;;;;;;;;;;5003124;28;20062;-80
2022/04/26 11:48:15;;;;;;;14.20;10.13;;;;;;;;;;5013159;28;20052;-81
2022/04/26 11:50:42;;;;;;;12.85;9.57;;;;;;;;;;5000328;28;20149;-81
2022/04/26 11:53:12;;;;;;;14.75;10.82;;;;;;;;;;4983340;28;20073;-80
2022/04/26 11:55:40;;;;;;;18.42;12.57;;;;;;;;;;4997199;28;20038;-81
2022/04/26 11:58:08;;;;;;;15.52;11.23;;;;;;;;;;4998711;28;20040;-82
2022/04/26 12:00:33;;;;;;;15.07;11.18;;;;;;;;;;4983286;28;20028;-81
2022/04/26 12:02:59;;;;;;;13.05;9.55;;;;;;;;;;4966599;28;20030;-81
2022/04/26 12:05:24;;;;;;;12.65;9.32;;;;;;;;;;4966281;28;20550;-81
2022/04/26 12:07:50;;;;;;;11.88;8.88;;;;;;;;;;4998537;28;20444;-80
2022/04/26 12:10:32;;;;;;;12.32;9.23;;;;;;;;;;4983092;28;20034;-81
2022/04/26 12:13:00;;;;;;;12.90;9.73;;;;;;;;;;5000403;28;20033;-81
2022/04/26 12:15:30;;;;;;;13.00;9.82;;;;;;;;;;4982179;28;20030;-80
2022/04/26 12:18:03;;;;;;;11.63;9.45;;;;;;;;;;4966710;28;20451;-80
2022/04/26 12:20:29;;;;;;;12.52;9.70;;;;;;;;;;4998641;28;20073;-82
2022/04/26 12:22:54;;;;;;;12.50;9.85;;;;;;;;;;4999058;28;20041;-80
2022/04/26 12:25:20;;;;;;;12.30;9.15;;;;;;;;;;4982022;28;20030;-80
2022/04/26 12:28:00;;;;;;;13.27;9.23;;;;;;;;;;4982937;28;20026;-80
2022/04/26 12:30:28;;;;;;;12.43;7.65;;;;;;;;;;4983936;28;20045;-80
2022/04/26 12:32:54;;;;;;;10.15;7.45;;;;;;;;;;5015467;28;20084;-80
2022/04/26 12:35:20;;;;;;;10.48;7.40;;;;;;;;;;4981363;28;20461;-81
2022/04/26 12:37:46;;;;;;;10.73;7.95;;;;;;;;;;4982483;28;20086;-80
2022/04/26 12:40:12;;;;;;;3.22;1.80;;;;;;;;;;4998571;28;20037;-80
2022/04/26 12:42:39;;;;;;;4.57;0.60;;;;;;;;;;4982565;28;20471;-82
2022/04/26 12:45:21;;;;;;;4.82;0.40;;;;;;;;;;4981790;28;20119;-83
2022/04/26 12:50:47;;;;;;;1.10;0.30;;;;;;;;;;5001132;28;20042;-81
2022/04/26 12:53:28;;;;;;;1.77;0.50;;;;;;;;;;4982056;28;20037;-80
2022/04/26 12:55:54;;;;;;;0.80;0.40;;;;;;;;;;5014702;28;20398;-82
2022/04/26 12:58:34;;;;;;;1.17;0.60;;;;;;;;;;4982505;28;20037;-82
2022/04/26 13:01:00;;;;;;;0.95;0.55;;;;;;;;;;4998575;28;20402;-81
2022/04/26 13:03:28;;;;;;;0.63;0.40;;;;;;;;;;4998414;28;20500;-82
2022/04/26 13:06:07;;;;;;;5.35;0.70;;;;;;;;;;4997484;28;20084;-82
2022/04/26 13:08:33;;;;;;;0.50;0.50;;;;;;;;;;4999613;28;20038;-82
2022/04/26 13:10:58;;;;;;;1.00;0.47;;;;;;;;;;4999818;28;20183;-83
2022/04/26 13:13:27;;;;;;;0.28;0.25;;;;;;;;;;4982037;28;20034;-81
2022/04/26 13:15:53;;;;;;;1.95;0.45;;;;;;;;;;4982579;28;20056;-82
2022/04/26 13:18:18;;;;;;;2.95;0.50;;;;;;;;;;4997354;28;20041;-81
2022/04/26 13:20:46;;;;;;;0.57;0.40;;;;;;;;;;4981684;28;20038;-81
2022/04/26 13:23:16;;;;;;;0.60;0.50;;;;;;;;;;4997322;28;20120;-81
2022/04/26 13:25:41;;;;;;;0.55;0.40;;;;;;;;;;4997028;28;20038;-81
2022/04/26 13:28:07;;;;;;;0.70;0.60;;;;;;;;;;4982201;28;20092;-80
2022/04/26 13:30:32;;;;;;;1.25;0.60;;;;;;;;;;4981315;28;20026;-80
2022/04/26 13:32:58;;;;;;;3.50;0.40;;;;;;;;;;4996821;28;20412;-82
2022/04/26 13:35:25;;;;;;;0.73;0.60;;;;;;;;;;4980955;28;20069;-82
2022/04/26 13:37:52;;;;;;;0.30;0.30;;;;;;;;;;5014967;28;20061;-81
2022/04/26 13:40:18;;;;;;;0.77;0.60;;;;;;;;;;4997965;28;20181;-81
2022/04/26 13:42:43;;;;;;;0.47;0.35;;;;;;;;;;4998318;28;20081;-81
2022/04/26 13:45:09;;;;;;;0.30;0.30;;;;;;;;;;4981356;28;20176;-82
2022/04/26 13:47:36;;;;;;;0.50;0.50;;;;;;;;;;4998152;28;20045;-81
2022/04/26 13:50:01;;;;;;;1.40;0.40;;;;;;;;;;4981841;28;20038;-82
2022/04/26 13:52:29;;;;;;;0.90;0.50;;;;;;;;;;4998448;28;20060;-82
2022/04/26 13:54:55;;;;;;;0.40;0.40;;;;;;;;;;4981309;28;20501;-82
2022/04/26 13:57:20;;;;;;;0.80;0.40;;;;;;;;;;4983282;28;20030;-81
2022/04/26 13:59:46;;;;;;;1.35;0.60;;;;;;;;;;4999357;28;20498;-80
2022/04/26 14:02:12;;;;;;;0.63;0.50;;;;;;;;;;4982824;28;20560;-82
2022/04/26 14:04:37;;;;;;;0.50;0.50;;;;;;;;;;4981842;28;20053;-82
2022/04/26 14:07:03;;;;;;;2.80;0.55;;;;;;;;;;4999080;28;20121;-81
2022/04/26 14:09:29;;;;;;;1.95;1.35;;;;;;;;;;4998728;28;20034;-80
2022/04/26 14:11:55;;;;;;;3.75;2.15;;;;;;;;;;4997078;28;20165;-81
2022/04/26 14:22:34;;;;;;;1.15;1.05;;;;;;;;;;5002494;28;20494;-82
2022/04/26 14:25:03;;;;;;;0.60;0.40;;;;;;;;;;4999472;28;20076;-82
2022/04/26 14:27:32;;;;;;;0.40;0.35;;;;;;;;;;5016988;28;20121;-82
2022/04/26 14:29:58;;;;;;;0.98;0.20;;;;;;;;;;5001202;28;20036;-81
2022/04/26 14:32:23;;;;;;;0.10;0.10;;;;;;;;;;5016969;28;20049;-81
2022/04/26 14:34:49;;;;;;;0.63;0.20;;;;;;;;;;4999514;28;20483;-81
2022/04/26 14:37:17;;;;;;;0.98;0.60;;;;;;;;;;5016392;28;20049;-81
2022/04/26 14:39:43;;;;;;;0.90;0.63;;;;;;;;;;4999210;28;20038;-82
2022/04/26 14:42:09;;;;;;;1.95;1.10;;;;;;;;;;5000351;28;20522;-81
2022/04/26 14:44:35;;;;;;;2.97;1.70;;;;;;;;;;5016299;28;20398;-82
2022/04/26 14:47:03;;;;;;;3.30;2.20;;;;;;;;;;5016572;28;20042;-83
2022/04/26 14:49:30;;;;;;;3.95;1.80;;;;;;;;;;5016130;28;20034;-82
2022/04/26 14:51:55;;;;;;;3.20;1.52;;;;;;;;;;4999764;28;20508;-84
2022/04/26 14:54:21;;;;;;;2.38;1.20;;;;;;;;;;4998899;28;20038;-81
2022/04/26 14:56:47;;;;;;;2.45;0.90;;;;;;;;;;4999466;28;20030;-81
2022/04/26 14:59:14;;;;;;;1.00;0.85;;;;;;;;;;5015015;28;20073;-80
2022/04/26 15:01:40;;;;;;;1.23;0.90;;;;;;;;;;4998327;28;20112;-82
2022/04/26 15:04:06;;;;;;;1.20;0.80;;;;;;;;;;4981785;28;20490;-82
2022/04/26 15:06:31;;;;;;;1.05;0.75;;;;;;;;;;5014751;28;20257;-80
2022/04/26 15:11:43;;;;;;;1.80;0.85;;;;;;;;;;5001851;28;20037;-80
2022/04/26 15:16:53;;;;;;;0.60;0.55;;;;;;;;;;5016876;28;20042;-80
2022/04/26 15:19:18;;;;;;;0.75;0.60;;;;;;;;;;5000096;28;20040;-80
2022/04/26 15:21:43;;;;;;;3.72;2.03;;;;;;;;;;5018400;28;20088;-80
2022/04/26 15:24:10;;;;;;;5.60;2.33;;;;;;;;;;5017597;28;20038;-80
2022/04/26 15:26:36;;;;;;;3.92;1.85;;;;;;;;;;5016791;28;20037;-80
2022/04/26 15:29:02;;;;;;;1.98;0.80;;;;;;;;;;5000932;28;20084;-81
2022/04/26 15:31:27;;;;;;;2.05;1.20;;;;;;;;;;5000997;28;20042;-81
2022/04/26 15:33:52;;;;;;;4.32;2.00;;;;;;;;;;5018069;28;20042;-80
2022/04/26 15:36:18;;;;;;;3.13;1.70;;;;;;;;;;5000675;28;20037;-80
2022/04/26 15:38:45;;;;;;;11.77;2.50;;;;;;;;;;5002032;28;20041;-80
2022/04/26 15:41:11;;;;;;;6.25;2.72;;;;;;;;;;5001672;28;20029;-80
2022/04/26 15:43:37;;;;;;;5.18;1.90;;;;;;;;;;5002428;28;20041;-80
2022/04/26 15:46:02;;;;;;;6.30;2.58;;;;;;;;;;5002452;28;20045;-80
2022/04/26 15:48:28;;;;;;;2.05;1.27;;;;;;;;;;4985827;28;20022;-80
2022/04/26 15:50:53;;;;;;;4.15;1.70;;;;;;;;;;5002590;28;20067;-80
2022/04/26 15:53:19;;;;;;;2.17;1.30;;;;;;;;;;5019414;28;20108;-80
2022/04/26 15:55:45;;;;;;;2.78;1.80;;;;;;;;;;5001660;28;20093;-80
2022/04/26 15:58:10;;;;;;;1.75;1.45;;;;;;;;;;5002005;28;20029;-80
2022/04/26 16:00:36;;;;;;;1.95;1.20;;;;;;;;;;5001978;28;20041;-80
2022/04/26 16:03:02;;;;;;;1.88;1.15;;;;;;;;;;5002997;28;20036;-81
2022/04/26 16:05:28;;;;;;;1.60;1.20;;;;;;;;;;5019645;28;20116;-80
2022/04/26 16:07:53;;;;;;;1.75;1.30;;;;;;;;;;5001032;28;20025;-80
2022/04/26 16:21:15;;;;;;;1.45;1.10;;;;;;;;;;5019672;28;20038;-81
2022/04/26 16:23:40;;;;;;;1.10;0.80;;;;;;;;;;5022980;28;20033;-81
2022/04/26 16:26:07;;;;;;;1.27;0.90;;;;;;;;;;5017512;28;20065;-83
2022/04/26 16:28:34;;;;;;;1.25;0.98;;;;;;;;;;5015934;28;20042;-83
2022/04/26 16:30:59;;;;;;;2.22;1.20;;;;;;;;;;4998171;28;20041;-82
2022/04/26 16:33:25;;;;;;;4.43;1.52;;;;;;;;;;4983161;28;20114;-82
2022/04/26 16:35:51;;;;;;;4.45;1.67;;;;;;;;;;5016452;28;20371;-83
2022/04/26 16:38:17;;;;;;;4.75;1.90;;;;;;;;;;4999561;28;20513;-83
2022/04/26 16:40:49;;;;;;;2.75;1.48;;;;;;;;;;5013876;28;20109;-83
2022/04/26 16:43:16;;;;;;;1.40;1.15;;;;;;;;;;5013969;28;20128;-85
2022/04/26 16:45:50;;;;;;;1.30;0.93;;;;;;;;;;5015483;28;20037;-84
2022/04/26 16:48:16;;;;;;;4.55;1.73;;;;;;;;;;4997100;28;20199;-84
2022/04/26 16:50:41;;;;;;;5.57;3.03;;;;;;;;;;5014424;28;20121;-84
2022/04/26 16:53:07;;;;;;;1.77;1.02;;;;;;;;;;5016626;28;20121;-83
2022/04/26 16:55:32;;;;;;;1.52;1.02;;;;;;;;;;5012286;28;20049;-83
2022/04/26 16:57:58;;;;;;;1.92;1.27;;;;;;;;;;4997302;28;20716;-83
2022/04/26 17:00:24;;;;;;;3.15;1.13;;;;;;;;;;4997182;28;20041;-83
2022/04/26 17:02:50;;;;;;;1.88;1.10;;;;;;;;;;4998060;28;20030;-82
2022/04/26 17:05:16;;;;;;;1.08;0.90;;;;;;;;;;4980235;28;20033;-82
2022/04/26 17:07:41;;;;;;;2.08;0.90;;;;;;;;;;4997567;28;20410;-81
2022/04/26 17:10:07;;;;;;;2.25;0.95;;;;;;;;;;5013391;28;20077;-85
2022/04/26 17:12:33;;;;;;;5.88;2.58;;;;;;;;;;5015245;28;20041;-82
2022/04/26 17:15:00;;;;;;;1.85;0.98;;;;;;;;;;5014588;28;20049;-81
2022/04/26 17:17:27;;;;;;;3.47;1.08;;;;;;;;;;4997741;28;20034;-81
2022/04/26 17:19:53;;;;;;;1.75;1.15;;;;;;;;;;5014206;28;20042;-81
2022/04/26 17:22:18;;;;;;;1.65;1.05;;;;;;;;;;5015364;28;20040;-82
2022/04/26 17:27:28;;;;;;;;;;;;;;;;;;5015539;28;20037;-81
2022/04/26 17:29:53;;;;;;;2.53;1.38;;;;;;;;;;5015088;28;19909;-81
2022/04/26 17:32:19;;;;;;;2.05;1.20;;;;;;;;;;5015230;28;20034;-81
2022/04/26 17:34:44;;;;;;;1.77;1.10;;;;;;;;;;5013896;28;20398;-81
2022/04/26 17:37:13;;;;;;;2.90;1.33;;;;;;;;;;4997616;28;20069;-81
2022/04/26 17:39:40;;;;;;;2.80;1.40;;;;;;;;;;4997667;28;20037;-81
2022/04/26 17:42:06;;;;;;;3.42;1.23;;;;;;;;;;4997444;28;20037;-81
2022/04/26 17:44:36;;;;;;;1.60;1.08;;;;;;;;;;4996881;28;20034;-82
2022/04/26 17:47:02;;;;;;;1.45;0.98;;;;;;;;;;4997013;28;20125;-81
2022/04/26 17:49:28;;;;;;;2.38;0.90;;;;;;;;;;4997841;28;20038;-82
2022/04/26 17:51:53;;;;;;;1.88;0.90;;;;;;;;;;5015454;28;20087;-81
2022/04/26 17:57:03;;;;;;;1.08;0.90;;;;;;;;;;5018504;28;20042;-81
2022/04/26 17:59:29;;;;;;;1.50;0.90;;;;;;;;;;5017845;28;20030;-81
2022/04/26 18:01:54;;;;;;;1.77;1.05;;;;;;;;;;5001279;28;20125;-81
2022/04/26 18:04:20;;;;;;;4.00;1.02;;;;;;;;;;5000778;28;20030;-81
2022/04/26 18:06:46;;;;;;;3.35;1.10;;;;;;;;;;5018518;28;20042;-81
2022/04/26 18:09:12;;;;;;;2.42;1.20;;;;;;;;;;5001305;28;20308;-81
2022/04/26 18:11:37;;;;;;;2.50;1.38;;;;;;;;;;5001016;28;20509;-81
2022/04/26 18:14:03;;;;;;;2.25;1.13;;;;;;;;;;5000711;28;20033;-81
2022/04/26 18:16:28;;;;;;;1.42;1.10;;;;;;;;;;5000590;28;20034;-80
2022/04/26 18:18:57;;;;;;;2.60;1.33;;;;;;;;;;5001124;28;20036;-81
2022/04/26 18:21:22;;;;;;;2.08;1.27;;;;;;;;;;5001107;28;20030;-81
2022/04/26 18:23:47;;;;;;;2.58;1.00;;;;;;;;;;5000452;28;20038;-81
2022/04/26 18:26:18;;;;;;;2.13;1.33;;;;;;;;;;5000389;28;20045;-81
2022/04/26 18:28:44;;;;;;;4.10;1.30;;;;;;;;;;5002125;28;20584;-81
2022/04/26 18:31:10;;;;;;;1.58;1.00;;;;;;;;;;5001118;28;20022;-81
2022/04/26 18:33:37;;;;;;;1.73;1.17;;;;;;;;;;5001338;28;20038;-81
2022/04/26 18:36:06;;;;;;;1.55;1.10;;;;;;;;;;4984612;28;20477;-81
2022/04/26 18:38:31;;;;;;;2.63;1.50;;;;;;;;;;5001815;28;20037;-81
2022/04/26 18:40:58;;;;;;;2.13;1.05;;;;;;;;;;5001317;28;20037;-81
2022/04/26 18:43:23;;;;;;;4.63;1.10;;;;;;;;;;5000157;28;20034;-80
2022/04/26 18:45:49;;;;;;;3.20;1.00;;;;;;;;;;5016819;28;20108;-81
2022/04/26 18:48:14;;;;;;;3.55;1.25;;;;;;;;;;5016866;28;20345;-81
2022/04/26 18:50:40;;;;;;;3.10;1.52;;;;;;;;;;5018195;28;20045;-81
2022/04/26 18:53:07;;;;;;;2.30;1.40;;;;;;;;;;5018592;28;20038;-81
2022/04/26 18:55:33;;;;;;;2.00;1.20;;;;;;;;;;5000000;28;20040;-83
2022/04/26 18:57:58;;;;;;;2.40;1.05;;;;;;;;;;5000884;28;20487;-82